Time;durP1;ratioP1;P1;durP2;ratioP2;P2;SDS_P1;SDS_P2;PMS_P1;PMS_P2;Temp;Humidity;BMP_temperature;BMP_pressure;BME280_temperature;BME280_humidity;BME280_pressure;Samples;Min_cycle;Max_cycle;Signal;HPM_P1;HPM_P2
2022/02/15 00:05:42;;;;;;;36.45;25.65;;;;;;;11.11;53.17;102190.59;143732;617;47006;-71
2022/02/15 04:02:07;;;;;;;18.02;14.18;;;;;;;10.14;53.21;102218.56;143735;610;47010;-70
2022/02/15 04:04:33;;;;;;;17.10;13.02;;;;;;;10.13;53.63;102220.41;143731;595;47002;-70
2022/02/15 04:06:59;;;;;;;17.27;11.90;;;;;;;10.12;53.16;102228.62;143732;651;46924;-70
2022/02/15 04:09:26;;;;;;;18.62;11.95;;;;;;;10.12;53.05;102223.25;143732;620;47002;-71
2022/02/15 04:11:53;;;;;;;16.55;11.80;;;;;;;10.12;52.93;102228.62;143731;567;47010;-71
2022/02/15 04:14:19;;;;;;;17.62;11.65;;;;;;;10.01;53.06;102224.34;143730;568;47004;-71
2022/02/15 04:16:45;;;;;;;19.60;13.45;;;;;;;10.00;53.43;102230.72;143734;581;46006;-71
2022/02/15 04:19:12;;;;;;;16.52;11.80;;;;;;;10.00;53.14;102225.34;143731;594;47002;-73
2022/02/15 04:21:38;;;;;;;17.60;12.27;;;;;;;9.99;53.28;102237.09;143731;594;47008;-70
2022/02/15 04:24:05;;;;;;;20.92;12.35;;;;;;;9.96;52.96;102232.03;143731;669;47004;-71
2022/02/15 04:26:31;;;;;;;12.52;10.27;;;;;;;9.95;52.73;102223.16;143732;630;46007;-71
2022/02/15 04:28:58;;;;;;;16.77;10.65;;;;;;;9.98;53.17;102228.19;143734;567;47000;-71
2022/02/15 04:31:24;;;;;;;14.85;11.77;;;;;;;9.98;52.89;102233.56;143730;575;47010;-71
2022/02/15 04:33:51;;;;;;;17.40;11.93;;;;;;;10.01;52.96;102232.41;143730;569;47004;-70
2022/02/15 04:36:17;;;;;;;14.63;11.07;;;;;;;9.97;52.97;102234.53;143730;611;46924;-71
2022/02/15 04:38:44;;;;;;;15.82;11.50;;;;;;;9.95;53.18;102235.72;143734;620;47000;-70
2022/02/15 04:41:10;;;;;;;14.70;11.65;;;;;;;9.91;53.47;102239.69;143731;592;47008;-70
2022/02/15 04:43:37;;;;;;;16.52;10.95;;;;;;;9.93;53.18;102237.72;143728;575;47004;-71
2022/02/15 04:46:03;;;;;;;18.27;13.00;;;;;;;9.94;53.09;102239.41;143732;601;46006;-71
2022/02/15 04:48:29;;;;;;;23.40;13.27;;;;;;;9.97;53.15;102239.09;143735;583;46006;-71
2022/02/15 04:50:56;;;;;;;15.52;13.32;;;;;;;9.94;53.26;102236.72;143731;586;47011;-71
2022/02/15 04:53:22;;;;;;;22.55;16.00;;;;;;;9.91;53.20;102234.34;143729;594;47004;-71
2022/02/15 04:55:49;;;;;;;27.48;18.02;;;;;;;9.90;53.35;102236.19;143729;569;46006;-70
2022/02/15 04:58:15;;;;;;;22.40;16.80;;;;;;;9.85;53.86;102255.47;143733;572;47004;-71
2022/02/15 05:00:41;;;;;;;22.58;15.20;;;;;;;9.82;53.63;102239.66;143730;648;47010;-71
2022/02/15 05:03:08;;;;;;;23.12;14.15;;;;;;;9.77;53.79;102249.19;143725;585;47004;-71
2022/02/15 05:05:35;;;;;;;22.23;14.50;;;;;;;9.76;53.67;102242.94;143725;589;46924;-71
2022/02/15 05:08:01;;;;;;;18.60;12.95;;;;;;;9.78;54.08;102253.56;143726;602;47004;-71
2022/02/15 05:10:28;;;;;;;19.77;13.18;;;;;;;9.76;54.46;102259.06;143726;581;46010;-71
2022/02/15 05:12:55;;;;;;;15.93;12.05;;;;;;;9.75;54.44;102262.72;143724;574;47004;-71
2022/02/15 05:15:21;;;;;;;21.00;15.18;;;;;;;9.81;54.03;102258.59;143726;616;46006;-71
2022/02/15 05:17:48;;;;;;;29.65;21.05;;;;;;;9.83;54.04;102259.28;143725;583;47004;-71
2022/02/15 05:20:16;;;;;;;33.88;22.90;;;;;;;9.85;54.14;102254.59;143725;580;47011;-71
2022/02/15 05:22:43;;;;;;;35.50;22.85;;;;;;;9.84;54.23;102252.91;143724;635;47002;-71
2022/02/15 05:25:11;;;;;;;36.67;24.42;;;;;;;9.90;54.32;102263.03;143722;598;46008;-71
2022/02/15 05:27:38;;;;;;;27.95;21.62;;;;;;;9.90;54.17;102260.34;143726;627;47005;-71
2022/02/15 05:30:05;;;;;;;31.10;19.35;;;;;;;9.88;53.90;102266.88;143726;568;46920;-71
2022/02/15 05:32:32;;;;;;;24.50;17.73;;;;;;;9.90;54.14;102271.09;143724;594;47004;-70
2022/02/15 05:34:58;;;;;;;24.48;17.70;;;;;;;9.88;53.90;102273.06;143725;573;47006;-71
2022/02/15 05:37:25;;;;;;;25.23;16.65;;;;;;;9.83;53.89;102272.69;143725;597;47002;-71
2022/02/15 05:39:51;;;;;;;24.87;17.45;;;;;;;9.84;53.85;102285.97;143724;578;47010;-72
2022/02/15 05:42:18;;;;;;;25.62;14.90;;;;;;;9.89;53.52;102279.28;143726;603;47002;-72
2022/02/15 05:44:44;;;;;;;13.25;10.20;;;;;;;9.94;52.85;102285.03;143725;574;47000;-72
2022/02/15 05:47:11;;;;;;;15.25;10.32;;;;;;;9.96;52.54;102293.75;143728;599;47000;-71
2022/02/15 05:50:49;;;;;;;11.90;9.88;;;;;;;10.00;52.44;102287.09;143722;591;47008;-72
2022/02/15 05:52:23;;;;;;;18.50;10.77;;;;;;;10.01;52.43;102297.66;143725;603;47008;-71
2022/02/15 05:54:50;;;;;;;15.52;11.15;;;;;;;10.07;52.53;102287.31;143724;627;46015;-71
2022/02/15 05:57:17;;;;;;;19.40;12.30;;;;;;;10.08;52.79;102286.31;143725;595;47004;-71
2022/02/15 05:59:43;;;;;;;19.30;13.60;;;;;;;10.09;52.68;102291.50;143722;590;47010;-71
2022/02/15 06:02:09;;;;;;;21.10;15.85;;;;;;;10.14;52.44;102291.91;143723;566;47002;-72
2022/02/15 06:04:36;;;;;;;20.58;16.25;;;;;;;10.11;52.24;102294.87;143723;735;47000;-72
2022/02/15 06:07:04;;;;;;;19.17;14.75;;;;;;;10.12;52.41;102285.84;143726;599;47000;-71
2022/02/15 06:09:31;;;;;;;18.25;12.93;;;;;;;10.24;52.02;102285.56;143724;584;47008;-71
2022/02/15 06:11:57;;;;;;;18.20;11.85;;;;;;;10.27;52.17;102293.31;143724;567;47004;-71
2022/02/15 06:14:24;;;;;;;19.33;12.15;;;;;;;10.29;51.98;102286.81;143725;600;46006;-71
2022/02/15 06:16:51;;;;;;;15.93;11.27;;;;;;;10.34;51.60;102293.53;143725;574;47004;-71
2022/02/15 06:19:17;;;;;;;17.50;10.75;;;;;;;10.40;51.76;102293.78;143725;602;47010;-71
2022/02/15 06:21:43;;;;;;;14.95;10.10;;;;;;;10.44;51.41;102291.63;143723;664;47002;-71
2022/02/15 06:24:10;;;;;;;14.25;10.32;;;;;;;10.46;51.36;102295.81;143726;599;46006;-71
2022/02/15 06:26:36;;;;;;;21.52;11.23;;;;;;;10.52;51.57;102293.50;143726;581;47005;-70
2022/02/15 06:29:02;;;;;;;15.93;10.60;;;;;;;10.61;51.70;102301.47;143723;595;47010;-71
2022/02/15 06:31:29;;;;;;;15.40;11.00;;;;;;;10.69;51.59;102310.53;143725;573;47004;-69
2022/02/15 06:33:55;;;;;;;13.60;11.57;;;;;;;10.75;51.38;102309.91;143725;600;47007;-71
2022/02/15 06:36:21;;;;;;;19.48;12.98;;;;;;;10.81;51.29;102305.75;143726;592;47006;-71
2022/02/15 06:38:48;;;;;;;26.87;13.88;;;;;;;10.88;51.27;102315.69;143722;569;49002;-82
2022/02/15 06:41:15;;;;;;;16.65;11.90;;;;;;;10.92;51.20;102313.53;143731;606;45928;-82
2022/02/15 06:43:42;;;;;;;18.70;12.45;;;;;;;10.96;51.30;102314.06;143731;576;45928;-80
2022/02/15 06:46:09;;;;;;;17.75;12.00;;;;;;;11.02;51.11;102314.25;143724;568;47004;-82
2022/02/15 06:48:36;;;;;;;21.17;12.73;;;;;;;11.06;51.30;102317.44;143728;615;47012;-83
2022/02/15 06:51:04;;;;;;;22.48;12.77;;;;;;;11.11;51.40;102316.97;143718;599;49936;-82
2022/02/15 06:53:33;;;;;;;24.63;16.70;;;;;;;11.17;51.46;102314.47;143726;580;47019;-83
2022/02/15 06:56:00;;;;;;;19.98;16.60;;;;;;;11.23;51.37;102310.28;143734;601;45012;-83
2022/02/15 06:58:28;;;;;;;23.38;18.27;;;;;;;11.30;51.72;102308.59;143732;595;45933;-81
2022/02/15 07:00:55;;;;;;;24.90;19.37;;;;;;;11.40;51.13;102313.84;143732;635;45014;-82
2022/02/15 07:03:22;;;;;;;26.67;19.45;;;;;;;11.47;51.25;102305.97;143730;598;45930;-82
2022/02/15 07:05:49;;;;;;;25.90;17.12;;;;;;;11.54;51.11;102309.66;143733;649;45012;-82
2022/02/15 07:08:16;;;;;;;20.80;16.73;;;;;;;11.62;50.80;102312.38;143731;661;45934;-81
2022/02/15 07:10:44;;;;;;;26.30;18.85;;;;;;;11.75;50.86;102319.13;143731;584;46006;-81
2022/02/15 07:13:10;;;;;;;24.73;17.65;;;;;;;11.83;50.70;102317.28;143724;603;47008;-82
2022/02/15 07:15:38;;;;;;;24.70;18.08;;;;;;;11.90;50.16;102314.75;143731;611;47006;-82
2022/02/15 07:18:05;;;;;;;20.23;16.42;;;;;;;11.96;50.31;102308.72;143731;588;45934;-82
2022/02/15 07:20:32;;;;;;;23.77;17.70;;;;;;;12.03;50.48;102311.59;143726;586;48020;-81
2022/02/15 07:22:59;;;;;;;21.73;16.00;;;;;;;12.16;50.25;102316.47;143731;569;45930;-82
2022/02/15 07:25:26;;;;;;;21.35;17.05;;;;;;;12.27;50.34;102316.12;143730;595;47004;-82
2022/02/15 07:27:55;;;;;;;23.77;17.77;;;;;;;12.34;50.26;102312.75;143730;609;46010;-83
2022/02/15 07:30:22;;;;;;;18.75;14.68;;;;;;;12.42;50.02;102308.19;143728;584;46004;-80
2022/02/15 07:32:49;;;;;;;18.52;14.87;;;;;;;12.52;49.52;102310.69;143729;628;46023;-81
2022/02/15 07:35:16;;;;;;;19.00;14.40;;;;;;;12.62;49.41;102306.94;143732;569;47004;-83
2022/02/15 07:37:50;;;;;;;23.75;13.90;;;;;;;12.69;49.31;102300.69;143731;574;45934;-82
2022/02/15 07:40:21;;;;;;;16.23;13.90;;;;;;;12.77;49.16;102301.69;143729;648;47004;-81
2022/02/15 07:42:49;;;;;;;19.12;16.02;;;;;;;12.86;49.00;102300.63;143730;584;46008;-82
2022/02/15 07:45:19;;;;;;;27.55;16.87;;;;;;;12.95;49.12;102304.13;143726;578;49002;-83
2022/02/15 07:47:48;;;;;;;32.85;19.70;;;;;;;13.05;49.10;102299.38;143729;627;45934;-82
2022/02/15 07:50:16;;;;;;;27.77;20.83;;;;;;;13.11;49.43;102305.91;143730;616;45014;-80
2022/02/15 07:52:44;;;;;;;40.25;24.10;;;;;;;13.19;50.78;102312.13;143726;580;45930;-83
2022/02/15 07:55:12;;;;;;;53.28;30.58;;;;;;;13.28;52.38;102312.06;143731;567;45013;-83
2022/02/15 07:57:41;;;;;;;59.20;30.58;;;;;;;13.42;52.58;102310.50;143728;583;46012;-81
2022/02/15 08:00:09;;;;;;;50.78;30.00;;;;;;;13.52;52.52;102305.69;143725;575;48006;-82
2022/02/15 08:02:35;;;;;;;52.38;29.98;;;;;;;13.57;52.23;102303.31;143726;625;47008;-83
2022/02/15 08:05:02;;;;;;;45.08;27.80;;;;;;;13.68;52.14;102295.81;143731;605;46002;-83
2022/02/15 08:07:33;;;;;;;50.10;28.02;;;;;;;13.78;51.99;102305.34;143726;580;47012;-83
2022/02/15 08:10:02;;;;;;;47.72;29.70;;;;;;;13.88;51.80;102291.59;143728;589;46004;-83
2022/02/15 08:12:29;;;;;;;46.80;27.45;;;;;;;14.00;51.28;102296.56;143729;703;45930;-83
2022/02/15 08:14:56;;;;;;;42.83;26.02;;;;;;;14.11;50.55;102293.41;143730;715;45012;-82
2022/02/15 08:17:23;;;;;;;42.17;27.60;;;;;;;14.20;50.05;102294.19;143726;704;48004;-82
2022/02/15 08:19:50;;;;;;;40.67;25.10;;;;;;;14.25;49.77;102298.00;143722;655;47006;-83
2022/02/15 08:22:18;;;;;;;40.55;23.80;;;;;;;14.34;50.35;102287.13;143729;595;45930;-82
2022/02/15 08:24:45;;;;;;;39.25;24.35;;;;;;;14.45;49.87;102304.75;143728;616;47006;-82
2022/02/15 08:27:13;;;;;;;40.28;25.15;;;;;;;14.54;50.28;102292.81;143727;638;47012;-84
2022/02/15 08:29:40;;;;;;;39.20;26.12;;;;;;;14.69;49.98;102292.84;143726;680;47004;-83
2022/02/15 08:32:07;;;;;;;44.20;26.80;;;;;;;14.74;50.04;102297.69;143726;642;47008;-81
2022/02/15 08:34:34;;;;;;;41.58;25.45;;;;;;;14.81;50.36;102296.75;143728;623;47002;-81
2022/02/15 08:37:02;;;;;;;42.50;25.98;;;;;;;14.89;50.06;102295.81;143728;621;46012;-81
2022/02/15 08:39:30;;;;;;;39.83;23.33;;;;;;;14.97;50.22;102295.72;143726;671;46007;-82
2022/02/15 08:41:57;;;;;;;35.92;22.85;;;;;;;15.00;49.99;102295.31;143726;681;47008;-82
2022/02/15 08:44:24;;;;;;;41.95;24.35;;;;;;;15.03;49.97;102295.97;143729;607;47004;-82
2022/02/15 08:46:53;;;;;;;39.72;22.62;;;;;;;15.12;49.99;102289.44;143727;666;46012;-81
2022/02/15 08:49:20;;;;;;;33.10;22.15;;;;;;;15.19;49.48;102290.31;143727;677;46006;-82
2022/02/15 08:51:47;;;;;;;40.63;22.17;;;;;;;15.29;49.28;102281.91;143729;640;45930;-82
2022/02/15 08:54:14;;;;;;;31.42;20.73;;;;;;;15.40;49.68;102278.69;143723;587;47006;-82
2022/02/15 08:56:41;;;;;;;33.55;21.00;;;;;;;15.57;48.95;102281.97;143728;598;46013;-81
2022/02/15 08:59:08;;;;;;;40.35;22.83;;;;;;;15.71;48.91;102282.09;143722;687;48010;-82
2022/02/15 09:01:35;;;;;;;34.88;22.40;;;;;;;15.84;47.94;102275.97;143727;567;45930;-80
2022/02/15 09:04:02;;;;;;;31.08;20.67;;;;;;;15.97;48.29;102277.97;143731;569;45012;-82
2022/02/15 09:06:29;;;;;;;27.67;18.60;;;;;;;16.14;47.38;102268.53;143725;577;47004;-81
2022/02/15 09:08:56;;;;;;;33.25;21.30;;;;;;;16.29;47.57;102276.56;143729;602;46004;-81
2022/02/15 09:11:23;;;;;;;29.70;19.85;;;;;;;16.39;46.81;102280.78;143726;582;47008;-81
2022/02/15 09:13:51;;;;;;;27.37;17.40;;;;;;;16.46;46.73;102274.34;143732;627;45018;-81
2022/02/15 09:16:18;;;;;;;25.90;17.05;;;;;;;16.58;46.48;102277.34;143723;630;47012;-80
2022/02/15 09:18:45;;;;;;;24.17;17.20;;;;;;;16.70;46.06;102271.34;143726;637;47006;-81
2022/02/15 09:21:12;;;;;;;24.10;17.00;;;;;;;16.80;45.89;102274.53;143726;586;47008;-81
2022/02/15 09:23:39;;;;;;;21.37;15.38;;;;;;;16.96;45.42;102279.62;143729;573;46006;-82
2022/02/15 09:26:08;;;;;;;23.77;15.07;;;;;;;17.10;45.12;102280.53;143725;572;47010;-82
2022/02/15 09:28:35;;;;;;;24.15;16.23;;;;;;;17.23;44.43;102282.44;143722;572;47006;-81
2022/02/15 09:31:04;;;;;;;22.37;13.88;;;;;;;17.37;44.31;102290.63;143728;587;45930;-80
2022/02/15 09:33:32;;;;;;;21.45;15.50;;;;;;;17.64;44.32;102277.06;143726;576;48008;-81
2022/02/15 09:35:59;;;;;;;12.95;11.50;;;;;;;18.06;42.67;102287.75;143723;581;47010;-82
2022/02/15 09:38:34;;;;;;;18.27;12.57;;;;;;;18.62;41.08;102275.53;143729;599;45936;-82
2022/02/15 09:41:07;;;;;;;16.15;12.10;;;;;;;20.39;37.89;102269.50;143726;644;46008;-83
2022/02/15 09:43:37;;;;;;;16.50;11.15;;;;;;;25.69;28.81;102265.38;143728;603;47004;-83
2022/02/15 09:46:08;;;;;;;16.75;11.93;;;;;;;29.50;23.45;102265.59;143722;573;47011;-82
2022/02/15 09:48:37;;;;;;;17.73;13.85;;;;;;;31.76;20.38;102264.91;143728;592;46004;-82
2022/02/15 09:51:08;;;;;;;16.62;13.50;;;;;;;33.14;18.36;102259.47;143727;572;46008;-82
2022/02/15 09:53:35;;;;;;;16.52;12.57;;;;;;;34.17;17.61;102250.37;143726;608;47004;-83
2022/02/15 09:56:03;;;;;;;16.12;13.15;;;;;;;35.12;16.60;102258.38;143727;607;46016;-83
2022/02/15 09:58:30;;;;;;;19.92;14.43;;;;;;;35.88;15.52;102247.66;143727;598;47004;-83
2022/02/15 10:00:57;;;;;;;16.55;12.75;;;;;;;36.48;14.92;102237.28;143729;600;45930;-84
2022/02/15 10:03:24;;;;;;;19.23;15.10;;;;;;;37.13;14.73;102227.69;143729;579;47002;-82
2022/02/15 10:05:52;;;;;;;22.52;14.38;;;;;;;37.87;13.56;102219.41;143726;597;46012;-83
2022/02/15 10:08:28;;;;;;;18.17;13.55;;;;;;;38.42;13.49;102215.50;143726;593;47006;-81
2022/02/15 10:10:56;;;;;;;17.98;13.10;;;;;;;38.56;12.76;102209.50;143728;579;45930;-82
2022/02/15 10:13:23;;;;;;;15.70;13.10;;;;;;;39.05;13.20;102203.66;143732;624;45012;-82
2022/02/15 10:15:52;;;;;;;18.95;13.02;;;;;;;39.27;12.74;102193.78;143728;969;46031;-82
2022/02/15 10:18:25;;;;;;;15.80;11.38;;;;;;;38.61;13.03;102184.78;143725;575;47006;-80
2022/02/15 10:20:57;;;;;;;20.20;11.68;;;;;;;34.91;15.38;102183.63;143728;584;46006;-82
2022/02/15 10:23:33;;;;;;;14.93;10.32;;;;;;;32.32;17.74;102182.34;143724;603;47006;-82
2022/02/15 10:26:01;;;;;;;14.23;11.02;;;;;;;30.78;19.49;102188.75;143715;979;51004;-82
2022/02/15 10:28:31;;;;;;;14.82;10.98;;;;;;;30.14;20.43;102181.56;143727;978;47006;-82
2022/02/15 10:31:00;;;;;;;14.87;11.45;;;;;;;30.18;20.34;102177.09;143720;649;47006;-81
2022/02/15 10:33:35;;;;;;;20.37;12.75;;;;;;;33.37;17.68;102173.97;143732;584;45012;-82
2022/02/15 10:36:07;;;;;;;14.85;11.90;;;;;;;35.68;15.04;102166.19;143714;980;54004;-82
2022/02/15 10:38:38;;;;;;;16.17;12.23;;;;;;;36.79;14.25;102159.66;143729;583;45936;-82
2022/02/15 10:41:11;;;;;;;19.05;12.98;;;;;;;37.02;14.06;102165.69;143729;575;45930;-82
2022/02/15 10:43:52;;;;;;;20.23;12.45;;;;;;;35.31;15.26;102151.84;143732;982;45012;-83
2022/02/15 10:46:28;;;;;;;16.33;10.98;;;;;;;33.01;17.15;102157.38;143728;595;46012;-81
2022/02/15 10:48:56;;;;;;;14.93;11.57;;;;;;;30.39;19.47;102162.97;143728;973;46006;-81
2022/02/15 10:51:24;;;;;;;20.17;11.73;;;;;;;29.31;21.52;102152.00;143728;640;46004;-82
2022/02/15 10:53:51;;;;;;;16.27;11.45;;;;;;;28.52;22.35;102144.59;143728;595;47006;-82
2022/02/15 10:56:18;;;;;;;14.48;10.73;;;;;;;27.69;23.36;102149.63;143729;569;45935;-81
2022/02/15 10:58:47;;;;;;;14.68;11.25;;;;;;;26.83;24.93;102144.72;143725;880;47006;-82
2022/02/15 11:01:14;;;;;;;18.10;11.73;;;;;;;26.12;25.84;102143.44;143728;591;45930;-82
2022/02/15 11:03:42;;;;;;;13.62;10.02;;;;;;;25.60;26.32;102139.56;143729;577;46006;-81
2022/02/15 11:06:10;;;;;;;13.68;11.05;;;;;;;25.22;26.52;102143.16;143717;817;51006;-82
2022/02/15 11:08:38;;;;;;;15.32;10.00;;;;;;;24.90;27.48;102134.91;143723;658;47006;-80
2022/02/15 11:11:17;;;;;;;14.77;10.63;;;;;;;24.61;27.82;102135.16;143728;659;45930;-82
2022/02/15 11:13:46;;;;;;;14.10;10.82;;;;;;;24.25;28.96;102134.78;143729;982;47006;-81
2022/02/15 11:16:21;;;;;;;15.13;10.60;;;;;;;23.85;29.33;102126.56;143722;584;47012;-82
2022/02/15 11:18:48;;;;;;;14.52;12.05;;;;;;;23.74;30.18;102120.12;143729;645;45937;-81
2022/02/15 11:21:28;;;;;;;13.82;11.93;;;;;;;23.42;29.36;102128.16;143726;576;47008;-81
2022/02/15 11:24:06;;;;;;;18.50;10.95;;;;;;;23.27;31.17;102121.34;143732;812;45013;-82
2022/02/15 11:26:41;;;;;;;16.95;12.55;;;;;;;23.25;30.50;102114.47;143729;789;45935;-81
2022/02/15 11:29:23;;;;;;;11.88;9.35;;;;;;;23.03;31.22;102112.44;143727;921;46936;-81
2022/02/15 11:31:50;;;;;;;12.57;9.70;;;;;;;22.79;31.24;102109.84;143729;961;45930;-82
2022/02/15 11:34:28;;;;;;;17.62;10.00;;;;;;;22.66;31.38;102102.78;143730;982;46011;-83
2022/02/15 11:36:56;;;;;;;12.37;9.30;;;;;;;22.49;31.70;102099.19;143728;594;46016;-83
2022/02/15 11:39:26;;;;;;;13.73;10.13;;;;;;;22.44;31.82;102090.87;143730;972;45014;-81
2022/02/15 11:41:55;;;;;;;16.50;11.75;;;;;;;22.30;32.21;102093.88;143723;583;48008;-83
2022/02/15 11:44:36;;;;;;;16.92;11.70;;;;;;;22.29;32.10;102091.37;143729;572;48004;-80
2022/02/15 11:47:20;;;;;;;15.43;10.43;;;;;;;22.21;32.45;102081.66;143727;813;46012;-82
2022/02/15 11:50:01;;;;;;;15.88;9.68;;;;;;;22.19;32.10;102078.31;143725;582;47006;-81
2022/02/15 11:52:29;;;;;;;13.90;10.48;;;;;;;22.02;32.54;102083.75;143729;588;45930;-81
2022/02/15 11:55:07;;;;;;;17.95;11.30;;;;;;;21.87;33.38;102081.50;143730;635;46004;-82
2022/02/15 11:57:34;;;;;;;15.27;11.35;;;;;;;21.74;33.66;102091.66;143723;575;47010;-81
2022/02/15 12:00:01;;;;;;;16.33;11.00;;;;;;;21.64;34.09;102085.94;143730;567;45015;-80
2022/02/15 12:02:28;;;;;;;19.35;10.68;;;;;;;21.42;34.42;102083.81;143723;775;47009;-82
2022/02/15 12:05:04;;;;;;;14.95;11.23;;;;;;;21.31;35.03;102071.81;143732;586;46006;-81
2022/02/15 12:07:31;;;;;;;15.45;10.95;;;;;;;21.33;35.24;102069.69;143729;593;45934;-82
2022/02/15 12:10:07;;;;;;;15.93;12.05;;;;;;;21.23;34.70;102069.44;143724;596;47006;-82
2022/02/15 12:12:39;;;;;;;16.73;11.52;;;;;;;21.10;35.15;102075.13;143729;599;45012;-82
2022/02/15 12:15:09;;;;;;;16.00;12.32;;;;;;;21.10;35.38;102081.41;143731;793;46004;-83
2022/02/15 12:17:42;;;;;;;20.75;13.20;;;;;;;21.12;34.96;102073.00;143730;596;45013;-82
2022/02/15 12:20:17;;;;;;;18.00;12.85;;;;;;;21.05;35.52;102078.59;143728;603;46006;-83
2022/02/15 12:22:55;;;;;;;17.95;13.00;;;;;;;21.03;35.97;102067.87;143728;796;46930;-83
2022/02/15 12:25:25;;;;;;;17.58;12.10;;;;;;;21.01;35.31;102072.75;143725;662;47006;-83
2022/02/15 12:28:00;;;;;;;17.62;12.75;;;;;;;20.99;35.57;102072.16;143727;600;46022;-83
2022/02/15 12:30:33;;;;;;;19.27;13.68;;;;;;;20.87;35.39;102066.69;143728;583;46010;-83
2022/02/15 12:33:00;;;;;;;20.45;12.27;;;;;;;20.76;35.46;102067.47;143726;578;47002;-84
2022/02/15 12:35:28;;;;;;;17.48;13.05;;;;;;;20.77;35.02;102060.94;143733;604;45012;-84
2022/02/15 12:37:59;;;;;;;16.00;13.48;;;;;;;20.77;34.96;102063.69;143727;614;46008;-83
2022/02/15 12:40:27;;;;;;;16.98;13.50;;;;;;;20.77;35.23;102057.41;143727;637;47002;-83
2022/02/15 12:42:54;;;;;;;15.27;12.63;;;;;;;20.73;34.95;102054.28;143729;591;45008;-84
2022/02/15 12:45:21;;;;;;;16.48;12.80;;;;;;;20.75;35.66;102049.41;143730;640;46004;-82
2022/02/15 12:47:48;;;;;;;19.80;13.88;;;;;;;20.73;36.23;102051.56;143723;598;49924;-84
2022/02/15 12:50:18;;;;;;;15.50;11.65;;;;;;;20.62;36.27;102045.00;143725;581;47002;-82
2022/02/15 12:52:45;;;;;;;14.55;12.05;;;;;;;20.54;36.15;102045.31;143727;617;45925;-83
2022/02/15 12:55:18;;;;;;;18.87;13.38;;;;;;;20.50;36.01;102033.19;143725;584;48000;-82
2022/02/15 12:57:48;;;;;;;17.40;12.70;;;;;;;20.50;36.09;102038.66;143728;590;46010;-83
2022/02/15 13:00:17;;;;;;;16.02;12.30;;;;;;;20.45;35.20;102042.09;143729;579;46004;-81
2022/02/15 13:02:49;;;;;;;14.07;12.07;;;;;;;20.38;35.96;102027.72;143726;635;46006;-82
2022/02/15 13:05:35;;;;;;;17.37;12.48;;;;;;;20.37;36.14;102029.63;143732;574;45008;-82
2022/02/15 13:08:03;;;;;;;17.10;13.32;;;;;;;20.28;37.39;102029.09;143728;595;46002;-83
2022/02/15 13:10:30;;;;;;;15.82;11.52;;;;;;;20.24;37.58;102029.81;143724;588;51008;-83
2022/02/15 13:13:11;;;;;;;19.48;12.75;;;;;;;20.19;37.21;102026.94;143721;580;49004;-84
2022/02/15 13:15:38;;;;;;;16.45;11.73;;;;;;;20.10;37.97;102029.16;143731;591;46004;-82
2022/02/15 13:18:09;;;;;;;17.87;12.70;;;;;;;20.02;37.13;102027.59;143730;590;45010;-83
2022/02/15 13:20:38;;;;;;;13.77;11.68;;;;;;;19.90;38.01;102035.69;143725;622;47004;-82
2022/02/15 13:23:07;;;;;;;14.15;11.45;;;;;;;19.76;38.27;102021.38;143726;592;46007;-84
2022/02/15 13:25:44;;;;;;;16.12;12.10;;;;;;;19.69;38.36;102018.72;143732;589;45008;-82
2022/02/15 13:28:12;;;;;;;16.60;11.48;;;;;;;19.43;39.03;102013.59;143726;599;47010;-84
2022/02/15 13:30:39;;;;;;;12.37;11.07;;;;;;;19.37;39.46;102013.44;143725;595;47002;-82
2022/02/15 13:33:13;;;;;;;12.40;10.85;;;;;;;19.18;40.19;102023.47;143720;646;47006;-83
2022/02/15 13:36:00;;;;;;;14.18;11.00;;;;;;;19.16;40.18;102022.00;143731;598;46002;-82
2022/02/15 13:38:27;;;;;;;12.68;10.48;;;;;;;19.09;39.98;102016.63;143725;608;47011;-83
2022/02/15 13:40:55;;;;;;;13.48;9.85;;;;;;;19.04;40.54;102020.03;143726;640;47002;-83
2022/02/15 13:43:26;;;;;;;13.60;11.85;;;;;;;19.05;40.71;102018.16;143723;569;47006;-83
2022/02/15 13:45:55;;;;;;;13.07;10.40;;;;;;;18.97;40.62;102018.44;143731;627;46002;-84
2022/02/15 13:48:22;;;;;;;11.40;9.93;;;;;;;18.99;39.75;102022.59;143731;596;45010;-84
2022/02/15 13:50:51;;;;;;;11.90;9.80;;;;;;;18.97;39.94;102021.16;143731;572;45010;-85
2022/02/15 13:53:19;;;;;;;14.30;9.98;;;;;;;19.00;40.44;102020.72;143725;645;46007;-84
2022/02/15 13:55:47;;;;;;;13.05;10.35;;;;;;;19.02;40.51;102018.59;143729;586;48002;-85
2022/02/15 13:58:14;;;;;;;18.00;11.52;;;;;;;19.00;40.81;102026.97;143723;586;47010;-84
2022/02/15 14:00:42;;;;;;;16.67;12.25;;;;;;;18.89;41.06;102024.97;143728;604;46008;-82
2022/02/15 14:03:17;;;;;;;15.68;12.48;;;;;;;18.75;41.37;102016.06;143729;573;45925;-84
2022/02/15 14:05:44;;;;;;;19.37;12.27;;;;;;;18.73;41.36;102018.16;143727;604;49003;-83
2022/02/15 14:08:12;;;;;;;16.70;12.35;;;;;;;18.68;41.20;102015.31;143730;633;45924;-83
2022/02/15 14:10:39;;;;;;;17.67;11.70;;;;;;;18.65;40.60;102016.56;143722;587;48002;-83
2022/02/15 14:13:06;;;;;;;17.90;12.40;;;;;;;18.58;40.21;102019.34;143730;619;45926;-83
2022/02/15 14:15:33;;;;;;;14.25;11.30;;;;;;;18.55;40.06;102000.72;143722;572;51002;-82
2022/02/15 14:18:02;;;;;;;15.80;11.02;;;;;;;18.58;40.04;102004.91;143724;588;49922;-84
2022/02/15 14:20:31;;;;;;;16.85;12.23;;;;;;;18.48;40.65;102006.22;143728;589;47002;-84
2022/02/15 14:22:59;;;;;;;16.70;12.73;;;;;;;18.40;41.27;102000.22;143728;599;46926;-82
2022/02/15 14:25:26;;;;;;;14.98;12.13;;;;;;;18.40;40.94;102016.53;143727;570;49000;-83
2022/02/15 14:27:55;;;;;;;18.45;13.20;;;;;;;18.43;41.46;102005.22;143724;591;46008;-84
2022/02/15 14:30:22;;;;;;;17.60;10.95;;;;;;;18.28;40.42;102002.78;143728;572;46005;-82
2022/02/15 14:32:49;;;;;;;12.05;9.57;;;;;;;18.20;39.85;102005.78;143723;596;47926;-83
2022/02/15 14:35:17;;;;;;;16.40;11.93;;;;;;;18.15;42.12;102004.53;143732;576;45008;-81
2022/02/15 14:37:45;;;;;;;15.48;11.65;;;;;;;18.06;42.16;102011.31;143730;604;46010;-82
2022/02/15 14:40:12;;;;;;;15.80;12.80;;;;;;;18.00;43.05;102007.53;143731;586;45008;-81
2022/02/15 14:42:40;;;;;;;14.15;12.23;;;;;;;18.02;43.62;102007.34;143726;567;47004;-83
2022/02/15 14:45:08;;;;;;;15.75;11.38;;;;;;;18.05;43.10;101997.91;143733;569;45008;-81
2022/02/15 14:47:36;;;;;;;15.52;12.23;;;;;;;18.00;43.11;102004.81;143726;583;47010;-82
2022/02/15 14:50:04;;;;;;;15.52;12.05;;;;;;;18.00;42.92;102012.16;143730;626;46013;-82
2022/02/15 14:52:31;;;;;;;16.80;11.38;;;;;;;18.02;43.30;102018.22;143718;569;50004;-82
2022/02/15 14:54:58;;;;;;;13.50;11.90;;;;;;;17.77;43.27;102015.38;143729;572;47004;-81
2022/02/15 14:57:25;;;;;;;16.55;11.85;;;;;;;17.81;43.28;102013.91;143725;566;47008;-83
2022/02/15 14:59:52;;;;;;;15.32;11.82;;;;;;;17.76;43.31;102021.84;143728;689;46004;-80
2022/02/15 15:02:19;;;;;;;15.48;11.63;;;;;;;17.57;43.51;102019.81;143726;567;45008;-83
2022/02/15 15:04:49;;;;;;;19.98;13.45;;;;;;;17.62;43.55;102021.06;143729;587;47000;-81
2022/02/15 15:07:16;;;;;;;16.17;13.00;;;;;;;17.61;43.66;102025.66;143730;581;45924;-82
2022/02/15 15:09:43;;;;;;;19.73;13.27;;;;;;;17.59;43.86;102025.03;143730;616;45929;-83
2022/02/15 15:12:10;;;;;;;16.73;13.65;;;;;;;17.58;44.38;102021.47;143729;576;46014;-83
2022/02/15 15:14:37;;;;;;;18.25;14.45;;;;;;;17.52;44.22;102021.50;143732;609;46004;-83